sensor_id;sensor_type;location;lat;lon;timestamp;pressure;altitude;pressure_sealevel;temperature;humidity
49541;BME280;35432;43.566;1.398;2023-01-25T00:00:13;101441.22;;;0.39;72.08
49541;BME280;35432;43.566;1.398;2023-01-25T00:02:39;101438.63;;;0.39;72.30
49541;BME280;35432;43.566;1.398;2023-01-25T00:05:04;101443.06;;;0.41;72.53
49541;BME280;35432;43.566;1.398;2023-01-25T00:07:30;101437.19;;;0.44;72.64
49541;BME280;35432;43.566;1.398;2023-01-25T00:09:55;101444.22;;;0.47;72.83
49541;BME280;35432;43.566;1.398;2023-01-25T00:12:21;101438.34;;;0.49;72.62
49541;BME280;35432;43.566;1.398;2023-01-25T00:14:46;101437.63;;;0.52;72.50
49541;BME280;35432;43.566;1.398;2023-01-25T00:17:11;101442.06;;;0.54;72.52
49541;BME280;35432;43.566;1.398;2023-01-25T00:19:37;101439.56;;;0.56;72.95
49541;BME280;35432;43.566;1.398;2023-01-25T00:22:02;101444.13;;;0.60;72.93
49541;BME280;35432;43.566;1.398;2023-01-25T00:24:28;101445.91;;;0.61;72.86
49541;BME280;35432;43.566;1.398;2023-01-25T00:26:53;101453.84;;;0.64;72.77
49541;BME280;35432;43.566;1.398;2023-01-25T00:29:18;101453.13;;;0.67;72.91
49541;BME280;35432;43.566;1.398;2023-01-25T00:36:54;101448.13;;;0.70;73.10
49541;BME280;35432;43.566;1.398;2023-01-25T00:39:21;101449.09;;;0.72;72.66
49541;BME280;35432;43.566;1.398;2023-01-25T00:41:47;101448.28;;;0.73;73.24
49541;BME280;35432;43.566;1.398;2023-01-25T00:44:13;101434.34;;;0.71;73.14
49541;BME280;35432;43.566;1.398;2023-01-25T00:46:38;101435.22;;;0.71;72.98
49541;BME280;35432;43.566;1.398;2023-01-25T00:49:04;101440.34;;;0.70;72.96
49541;BME280;35432;43.566;1.398;2023-01-25T00:51:29;101430.69;;;0.67;72.51
49541;BME280;35432;43.566;1.398;2023-01-25T00:53:55;101428.81;;;0.65;72.91
49541;BME280;35432;43.566;1.398;2023-01-25T00:56:20;101431.25;;;0.62;72.85
49541;BME280;35432;43.566;1.398;2023-01-25T00:58:46;101431.88;;;0.57;72.79
49541;BME280;35432;43.566;1.398;2023-01-25T01:01:12;101438.50;;;0.52;72.64
49541;BME280;35432;43.566;1.398;2023-01-25T01:03:38;101439.94;;;0.47;72.32
49541;BME280;35432;43.566;1.398;2023-01-25T01:06:06;101437.09;;;0.42;72.82
49541;BME280;35432;43.566;1.398;2023-01-25T01:08:34;101438.63;;;0.39;72.39
49541;BME280;35432;43.566;1.398;2023-01-25T01:11:03;101445.34;;;0.35;72.70
49541;BME280;35432;43.566;1.398;2023-01-25T01:13:29;101446.03;;;0.33;72.34
49541;BME280;35432;43.566;1.398;2023-01-25T01:15:55;101447.47;;;0.27;72.24
49541;BME280;35432;43.566;1.398;2023-01-25T01:18:21;101440.34;;;0.23;72.15
49541;BME280;35432;43.566;1.398;2023-01-25T01:20:50;101435.69;;;0.18;72.49
49541;BME280;35432;43.566;1.398;2023-01-25T01:23:16;101445.09;;;0.16;72.50
49541;BME280;35432;43.566;1.398;2023-01-25T01:25:42;101444.00;;;0.12;72.55
49541;BME280;35432;43.566;1.398;2023-01-25T01:28:08;101451.59;;;0.09;72.27
49541;BME280;35432;43.566;1.398;2023-01-25T01:30:33;101448.84;;;0.06;72.17
49541;BME280;35432;43.566;1.398;2023-01-25T01:32:58;101446.06;;;0.03;72.11
49541;BME280;35432;43.566;1.398;2023-01-25T01:35:24;101442.50;;;0.01;72.15
49541;BME280;35432;43.566;1.398;2023-01-25T01:37:49;101450.91;;;-0.04;72.40
49541;BME280;35432;43.566;1.398;2023-01-25T01:40:15;101448.13;;;-0.07;72.41
49541;BME280;35432;43.566;1.398;2023-01-25T01:43:02;101453.94;;;-0.11;72.00
49541;BME280;35432;43.566;1.398;2023-01-25T01:46:04;101456.31;;;-0.14;71.92
49541;BME280;35432;43.566;1.398;2023-01-25T01:48:49;101456.25;;;-0.16;72.27
49541;BME280;35432;43.566;1.398;2023-01-25T01:51:22;101458.56;;;-0.20;72.13
49541;BME280;35432;43.566;1.398;2023-01-25T01:53:53;101465.28;;;-0.24;71.91
49541;BME280;35432;43.566;1.398;2023-01-25T01:56:27;101467.66;;;-0.27;72.12
49541;BME280;35432;43.566;1.398;2023-01-25T01:58:55;101465.06;;;-0.27;72.38
49541;BME280;35432;43.566;1.398;2023-01-25T02:01:21;101452.84;;;-0.30;72.25
49541;BME280;35432;43.566;1.398;2023-01-25T02:03:47;101444.09;;;-0.32;72.00
49541;BME280;35432;43.566;1.398;2023-01-25T02:06:45;101456.88;;;-0.35;71.84
49541;BME280;35432;43.566;1.398;2023-01-25T02:09:12;101468.91;;;-0.35;72.10
49541;BME280;35432;43.566;1.398;2023-01-25T02:11:40;101468.72;;;-0.38;72.03
49541;BME280;35432;43.566;1.398;2023-01-25T02:14:07;101470.31;;;-0.40;72.02
49541;BME280;35432;43.566;1.398;2023-01-25T02:16:33;101473.78;;;-0.40;72.27
49541;BME280;35432;43.566;1.398;2023-01-25T02:18:58;101469.25;;;-0.44;72.06
49541;BME280;35432;43.566;1.398;2023-01-25T02:21:30;101475.16;;;-0.47;72.07
49541;BME280;35432;43.566;1.398;2023-01-25T02:24:09;101478.53;;;-0.48;71.99
49541;BME280;35432;43.566;1.398;2023-01-25T02:26:36;101471.47;;;-0.50;72.04
49541;BME280;35432;43.566;1.398;2023-01-25T02:29:04;101473.16;;;-0.51;72.01
49541;BME280;35432;43.566;1.398;2023-01-25T02:31:31;101479.03;;;-0.53;71.80
49541;BME280;35432;43.566;1.398;2023-01-25T02:33:56;101486.63;;;-0.56;71.91
49541;BME280;35432;43.566;1.398;2023-01-25T02:36:40;101487.22;;;-0.61;72.05
49541;BME280;35432;43.566;1.398;2023-01-25T02:39:08;101481.16;;;-0.61;72.10
49541;BME280;35432;43.566;1.398;2023-01-25T02:41:39;101469.72;;;-0.65;72.13
49541;BME280;35432;43.566;1.398;2023-01-25T02:44:10;101469.53;;;-0.68;71.90
49541;BME280;35432;43.566;1.398;2023-01-25T02:46:38;101463.50;;;-0.68;71.85
49541;BME280;35432;43.566;1.398;2023-01-25T02:49:05;101453.84;;;-0.71;72.08
49541;BME280;35432;43.566;1.398;2023-01-25T02:51:34;101446.88;;;-0.72;71.85
49541;BME280;35432;43.566;1.398;2023-01-25T02:54:02;101444.28;;;-0.72;72.21
49541;BME280;35432;43.566;1.398;2023-01-25T02:56:28;101443.38;;;-0.73;72.10
49541;BME280;35432;43.566;1.398;2023-01-25T02:58:53;101439.91;;;-0.73;72.13
49541;BME280;35432;43.566;1.398;2023-01-25T03:01:19;101451.13;;;-0.73;71.89
49541;BME280;35432;43.566;1.398;2023-01-25T03:03:44;101438.13;;;-0.74;72.28
49541;BME280;35432;43.566;1.398;2023-01-25T03:06:10;101440.59;;;-0.76;72.15
49541;BME280;35432;43.566;1.398;2023-01-25T03:08:35;101432.84;;;-0.76;72.09
49541;BME280;35432;43.566;1.398;2023-01-25T03:11:02;101429.38;;;-0.76;72.23
49541;BME280;35432;43.566;1.398;2023-01-25T03:13:29;101434.56;;;-0.76;72.45
49541;BME280;35432;43.566;1.398;2023-01-25T03:16:02;101430.19;;;-0.77;72.28
49541;BME280;35432;43.566;1.398;2023-01-25T03:18:28;101431.97;;;-0.76;72.42
49541;BME280;35432;43.566;1.398;2023-01-25T03:20:53;101435.44;;;-0.76;72.33
49541;BME280;35432;43.566;1.398;2023-01-25T03:23:19;101438.13;;;-0.74;72.60
49541;BME280;35432;43.566;1.398;2023-01-25T03:25:44;101441.69;;;-0.72;72.61
49541;BME280;35432;43.566;1.398;2023-01-25T03:28:10;101433.94;;;-0.72;72.52
49541;BME280;35432;43.566;1.398;2023-01-25T03:30:35;101427.97;;;-0.71;72.56
49541;BME280;35432;43.566;1.398;2023-01-25T03:33:00;101441.88;;;-0.69;72.44
49541;BME280;35432;43.566;1.398;2023-01-25T03:35:26;101428.94;;;-0.69;72.44
49541;BME280;35432;43.566;1.398;2023-01-25T03:37:51;101433.25;;;-0.69;72.45
49541;BME280;35432;43.566;1.398;2023-01-25T03:40:17;101432.34;;;-0.70;72.37
49541;BME280;35432;43.566;1.398;2023-01-25T03:42:42;101436.72;;;-0.69;72.48
49541;BME280;35432;43.566;1.398;2023-01-25T03:45:08;101436.72;;;-0.69;72.34
49541;BME280;35432;43.566;1.398;2023-01-25T03:47:33;101438.50;;;-0.68;72.49
49541;BME280;35432;43.566;1.398;2023-01-25T03:49:59;101440.22;;;-0.68;72.32
49541;BME280;35432;43.566;1.398;2023-01-25T03:52:24;101439.41;;;-0.67;72.47
49541;BME280;35432;43.566;1.398;2023-01-25T03:54:51;101437.69;;;-0.67;72.51
49541;BME280;35432;43.566;1.398;2023-01-25T03:57:16;101440.28;;;-0.67;72.75
49541;BME280;35432;43.566;1.398;2023-01-25T03:59:42;101442.00;;;-0.67;72.44
49541;BME280;35432;43.566;1.398;2023-01-25T04:02:07;101435.03;;;-0.68;72.63
49541;BME280;35432;43.566;1.398;2023-01-25T04:04:33;101431.53;;;-0.69;72.57
49541;BME280;35432;43.566;1.398;2023-01-25T04:06:58;101431.53;;;-0.69;72.72
49541;BME280;35432;43.566;1.398;2023-01-25T04:09:23;101444.56;;;-0.67;72.54
49541;BME280;35432;43.566;1.398;2023-01-25T04:11:49;101439.47;;;-0.66;72.86
49541;BME280;35432;43.566;1.398;2023-01-25T04:14:15;101437.06;;;-0.63;72.66
49541;BME280;35432;43.566;1.398;2023-01-25T04:16:41;101434.59;;;-0.61;72.99
49541;BME280;35432;43.566;1.398;2023-01-25T04:19:06;101435.47;;;-0.61;72.94
49541;BME280;35432;43.566;1.398;2023-01-25T04:21:32;101432.88;;;-0.61;72.94
49541;BME280;35432;43.566;1.398;2023-01-25T04:23:57;101432.13;;;-0.60;72.37
49541;BME280;35432;43.566;1.398;2023-01-25T04:26:23;101423.56;;;-0.59;72.91
49541;BME280;35432;43.566;1.398;2023-01-25T04:28:48;101414.97;;;-0.57;72.81
49541;BME280;35432;43.566;1.398;2023-01-25T04:31:14;101421.03;;;-0.57;73.11
49541;BME280;35432;43.566;1.398;2023-01-25T04:33:39;101418.44;;;-0.57;72.92
49541;BME280;35432;43.566;1.398;2023-01-25T04:36:05;101432.28;;;-0.56;72.96
49541;BME280;35432;43.566;1.398;2023-01-25T04:38:31;101427.13;;;-0.56;72.93
49541;BME280;35432;43.566;1.398;2023-01-25T04:40:56;101423.72;;;-0.55;72.74
49541;BME280;35432;43.566;1.398;2023-01-25T04:43:21;101418.56;;;-0.55;72.70
49541;BME280;35432;43.566;1.398;2023-01-25T04:45:47;101419.34;;;-0.56;72.84
49541;BME280;35432;43.566;1.398;2023-01-25T04:48:13;101420.16;;;-0.57;72.89
49541;BME280;35432;43.566;1.398;2023-01-25T04:50:40;101422.63;;;-0.59;72.75
49541;BME280;35432;43.566;1.398;2023-01-25T04:53:06;101428.63;;;-0.60;72.56
49541;BME280;35432;43.566;1.398;2023-01-25T04:55:33;101423.44;;;-0.60;72.93
49541;BME280;35432;43.566;1.398;2023-01-25T04:57:59;101431.91;;;-0.63;72.45
49541;BME280;35432;43.566;1.398;2023-01-25T05:00:25;101424.88;;;-0.65;72.61
49541;BME280;35432;43.566;1.398;2023-01-25T05:02:50;101425.66;;;-0.66;72.44
49541;BME280;35432;43.566;1.398;2023-01-25T05:05:16;101426.47;;;-0.67;72.80
49541;BME280;35432;43.566;1.398;2023-01-25T05:07:42;101428.94;;;-0.69;72.76
49541;BME280;35432;43.566;1.398;2023-01-25T05:10:08;101422.00;;;-0.70;72.87
49541;BME280;35432;43.566;1.398;2023-01-25T05:12:33;101418.53;;;-0.70;73.11
49541;BME280;35432;43.566;1.398;2023-01-25T05:14:59;101411.56;;;-0.71;72.70
49541;BME280;35432;43.566;1.398;2023-01-25T05:17:25;101417.63;;;-0.71;72.71
49541;BME280;35432;43.566;1.398;2023-01-25T05:19:50;101408.88;;;-0.73;72.73
49541;BME280;35432;43.566;1.398;2023-01-25T05:22:17;101403.81;;;-0.71;72.95
49541;BME280;35432;43.566;1.398;2023-01-25T05:24:45;101402.91;;;-0.72;72.52
49541;BME280;35432;43.566;1.398;2023-01-25T05:27:13;101398.72;;;-0.70;73.07
49541;BME280;35432;43.566;1.398;2023-01-25T05:29:41;101404.00;;;-0.68;72.84
49541;BME280;35432;43.566;1.398;2023-01-25T05:32:19;101409.25;;;-0.67;73.10
49541;BME280;35432;43.566;1.398;2023-01-25T05:34:45;101405.16;;;-0.63;73.04
49541;BME280;35432;43.566;1.398;2023-01-25T05:37:14;101407.81;;;-0.62;73.37
49541;BME280;35432;43.566;1.398;2023-01-25T05:39:40;101414.06;;;-0.58;72.91
49541;BME280;35432;43.566;1.398;2023-01-25T05:42:13;101411.59;;;-0.56;73.24
49541;BME280;35432;43.566;1.398;2023-01-25T05:44:39;101411.78;;;-0.53;73.51
49541;BME280;35432;43.566;1.398;2023-01-25T05:47:05;101413.72;;;-0.49;73.48
49541;BME280;35432;43.566;1.398;2023-01-25T05:49:30;101415.88;;;-0.42;73.62
49541;BME280;35432;43.566;1.398;2023-01-25T05:51:56;101412.88;;;-0.35;73.69
49541;BME280;35432;43.566;1.398;2023-01-25T05:54:21;101405.34;;;-0.30;73.39
49541;BME280;35432;43.566;1.398;2023-01-25T05:56:48;101411.69;;;-0.25;74.05
49541;BME280;35432;43.566;1.398;2023-01-25T05:59:14;101408.56;;;-0.19;73.84
49541;BME280;35432;43.566;1.398;2023-01-25T06:01:39;101414.91;;;-0.14;73.90
49541;BME280;35432;43.566;1.398;2023-01-25T06:04:05;101416.09;;;-0.09;73.74
49541;BME280;35432;43.566;1.398;2023-01-25T06:06:31;101415.44;;;-0.05;73.72
49541;BME280;35432;43.566;1.398;2023-01-25T06:08:56;101421.69;;;-0.01;73.81
49541;BME280;35432;43.566;1.398;2023-01-25T06:11:23;101422.88;;;0.04;73.69
49541;BME280;35432;43.566;1.398;2023-01-25T06:13:49;101426.78;;;0.12;74.10
49541;BME280;35432;43.566;1.398;2023-01-25T06:16:17;101424.63;;;0.20;74.33
49541;BME280;35432;43.566;1.398;2023-01-25T06:18:42;101428.53;;;0.28;74.61
49541;BME280;35432;43.566;1.398;2023-01-25T06:21:08;101427.38;;;0.38;74.39
49541;BME280;35432;43.566;1.398;2023-01-25T06:23:34;101422.63;;;0.46;74.36
49541;BME280;35432;43.566;1.398;2023-01-25T06:26:01;101424.72;;;0.53;74.18
49541;BME280;35432;43.566;1.398;2023-01-25T06:28:35;101432.06;;;0.61;74.26
49541;BME280;35432;43.566;1.398;2023-01-25T06:31:12;101423.81;;;0.68;74.14
49541;BME280;35432;43.566;1.398;2023-01-25T06:33:39;101426.81;;;0.76;74.71
49541;BME280;35432;43.566;1.398;2023-01-25T06:36:09;101415.88;;;0.81;74.64
49541;BME280;35432;43.566;1.398;2023-01-25T06:38:35;101412.66;;;0.85;74.25
49541;BME280;35432;43.566;1.398;2023-01-25T06:41:02;101416.38;;;0.91;74.42
49541;BME280;35432;43.566;1.398;2023-01-25T06:43:29;101413.22;;;0.96;74.37
49541;BME280;35432;43.566;1.398;2023-01-25T06:46:03;101420.28;;;0.99;74.59
49541;BME280;35432;43.566;1.398;2023-01-25T06:48:29;101420.44;;;1.02;74.82
49541;BME280;35432;43.566;1.398;2023-01-25T06:51:06;101430.09;;;1.05;74.11
49541;BME280;35432;43.566;1.398;2023-01-25T06:53:34;101427.75;;;1.09;74.89
49541;BME280;35432;43.566;1.398;2023-01-25T06:56:06;101432.34;;;1.15;75.11
49541;BME280;35432;43.566;1.398;2023-01-25T06:58:35;101429.13;;;1.19;74.80
49541;BME280;35432;43.566;1.398;2023-01-25T07:01:11;101439.84;;;1.25;74.38
49541;BME280;35432;43.566;1.398;2023-01-25T07:03:37;101430.50;;;1.29;74.91
49541;BME280;35432;43.566;1.398;2023-01-25T07:06:05;101437.66;;;1.33;74.40
49541;BME280;35432;43.566;1.398;2023-01-25T07:08:32;101441.38;;;1.38;75.44
49541;BME280;35432;43.566;1.398;2023-01-25T07:11:00;101430.25;;;1.41;75.09
49541;BME280;35432;43.566;1.398;2023-01-25T07:13:27;101427.91;;;1.46;74.68
49541;BME280;35432;43.566;1.398;2023-01-25T07:15:58;101435.03;;;1.50;75.20
49541;BME280;35432;43.566;1.398;2023-01-25T07:18:25;101432.69;;;1.54;74.98
49541;BME280;35432;43.566;1.398;2023-01-25T07:20:50;101433.75;;;1.58;75.25
49541;BME280;35432;43.566;1.398;2023-01-25T07:23:16;101439.09;;;1.61;75.12
49541;BME280;35432;43.566;1.398;2023-01-25T07:25:49;101439.25;;;1.64;74.76
49541;BME280;35432;43.566;1.398;2023-01-25T07:28:15;101436.88;;;1.69;75.26
49541;BME280;35432;43.566;1.398;2023-01-25T07:30:42;101439.69;;;1.74;74.56
49541;BME280;35432;43.566;1.398;2023-01-25T07:33:08;101433.78;;;1.76;74.61
49541;BME280;35432;43.566;1.398;2023-01-25T07:35:34;101442.59;;;1.80;75.14
49541;BME280;35432;43.566;1.398;2023-01-25T07:37:59;101433.22;;;1.82;74.92
49541;BME280;35432;43.566;1.398;2023-01-25T07:40:25;101435.97;;;1.85;75.49
49541;BME280;35432;43.566;1.398;2023-01-25T07:42:51;101442.19;;;1.89;74.75
49541;BME280;35432;43.566;1.398;2023-01-25T07:45:17;101437.06;;;1.90;75.49
49541;BME280;35432;43.566;1.398;2023-01-25T07:47:42;101443.31;;;1.94;75.13
49541;BME280;35432;43.566;1.398;2023-01-25T07:50:09;101449.53;;;1.97;75.30
49541;BME280;35432;43.566;1.398;2023-01-25T07:52:35;101447.91;;;1.99;75.07
49541;BME280;35432;43.566;1.398;2023-01-25T07:55:00;101453.25;;;2.03;74.79
49541;BME280;35432;43.566;1.398;2023-01-25T07:57:26;101450.84;;;2.06;74.76
49541;BME280;35432;43.566;1.398;2023-01-25T07:59:53;101460.47;;;2.08;75.33
49541;BME280;35432;43.566;1.398;2023-01-25T08:02:18;101452.81;;;2.11;75.10
49541;BME280;35432;43.566;1.398;2023-01-25T08:04:44;101459.91;;;2.14;75.14
49541;BME280;35432;43.566;1.398;2023-01-25T08:07:10;101465.34;;;2.19;74.84
49541;BME280;35432;43.566;1.398;2023-01-25T08:09:36;101466.44;;;2.24;74.88
49541;BME280;35432;43.566;1.398;2023-01-25T08:12:01;101461.63;;;2.32;74.83
49541;BME280;35432;43.566;1.398;2023-01-25T08:14:27;101474.09;;;2.39;74.64
49541;BME280;35432;43.566;1.398;2023-01-25T08:16:53;101477.00;;;2.45;75.10
49541;BME280;35432;43.566;1.398;2023-01-25T08:19:18;101473.94;;;2.54;75.32
49541;BME280;35432;43.566;1.398;2023-01-25T08:21:44;101470.75;;;2.60;74.73
49541;BME280;35432;43.566;1.398;2023-01-25T08:24:10;101473.56;;;2.64;75.27
49541;BME280;35432;43.566;1.398;2023-01-25T08:26:36;101465.16;;;2.70;74.88
49541;BME280;35432;43.566;1.398;2023-01-25T08:29:02;101470.50;;;2.73;74.53
49541;BME280;35432;43.566;1.398;2023-01-25T08:31:30;101474.16;;;2.77;75.06
49541;BME280;35432;43.566;1.398;2023-01-25T08:33:56;101470.06;;;2.82;74.76
49541;BME280;35432;43.566;1.398;2023-01-25T08:36:22;101471.97;;;2.86;74.94
49541;BME280;35432;43.566;1.398;2023-01-25T08:38:57;101476.59;;;2.92;74.97
49541;BME280;35432;43.566;1.398;2023-01-25T08:41:23;101479.47;;;2.98;75.20
49541;BME280;35432;43.566;1.398;2023-01-25T08:43:52;101479.69;;;3.03;75.08
49541;BME280;35432;43.566;1.398;2023-01-25T08:46:18;101475.59;;;3.08;74.83
49541;BME280;35432;43.566;1.398;2023-01-25T08:48:44;101481.03;;;3.12;74.84
49541;BME280;35432;43.566;1.398;2023-01-25T08:51:14;101486.34;;;3.15;75.07
49541;BME280;35432;43.566;1.398;2023-01-25T08:53:40;101489.25;;;3.22;74.69
49541;BME280;35432;43.566;1.398;2023-01-25T08:56:08;101489.59;;;3.29;74.82
49541;BME280;35432;43.566;1.398;2023-01-25T08:58:35;101494.34;;;3.38;74.82
49541;BME280;35432;43.566;1.398;2023-01-25T09:01:06;101484.97;;;3.42;74.25
49541;BME280;35432;43.566;1.398;2023-01-25T09:03:36;101486.91;;;3.48;74.46
49541;BME280;35432;43.566;1.398;2023-01-25T09:06:02;101487.97;;;3.51;74.79
49541;BME280;35432;43.566;1.398;2023-01-25T09:08:28;101489.97;;;3.57;75.22
49541;BME280;35432;43.566;1.398;2023-01-25T09:10:53;101499.00;;;3.65;74.91
49541;BME280;35432;43.566;1.398;2023-01-25T09:13:19;101498.38;;;3.71;75.16
49541;BME280;35432;43.566;1.398;2023-01-25T09:15:44;101499.53;;;3.78;74.89
49541;BME280;35432;43.566;1.398;2023-01-25T09:18:10;101501.59;;;3.85;74.64
49541;BME280;35432;43.566;1.398;2023-01-25T09:20:38;101503.63;;;3.92;74.57
49541;BME280;35432;43.566;1.398;2023-01-25T09:23:04;101495.19;;;3.98;74.91
49541;BME280;35432;43.566;1.398;2023-01-25T09:25:30;101494.44;;;4.00;74.49
49541;BME280;35432;43.566;1.398;2023-01-25T09:27:55;101495.38;;;4.02;74.46
49541;BME280;35432;43.566;1.398;2023-01-25T09:30:20;101498.81;;;4.01;74.45
49541;BME280;35432;43.566;1.398;2023-01-25T09:32:49;101504.88;;;4.00;74.58
49541;BME280;35432;43.566;1.398;2023-01-25T09:35:15;101503.09;;;3.99;74.32
49541;BME280;35432;43.566;1.398;2023-01-25T09:37:40;101502.91;;;3.96;74.22
49541;BME280;35432;43.566;1.398;2023-01-25T09:40:17;101505.28;;;3.90;73.65
49541;BME280;35432;43.566;1.398;2023-01-25T09:42:55;101505.84;;;3.83;74.20
49541;BME280;35432;43.566;1.398;2023-01-25T09:45:35;101501.44;;;3.82;74.59
49541;BME280;35432;43.566;1.398;2023-01-25T09:48:24;101499.66;;;3.81;74.17
49541;BME280;35432;43.566;1.398;2023-01-25T09:53:33;101492.03;;;3.85;73.82
49541;BME280;35432;43.566;1.398;2023-01-25T09:58:37;101489.72;;;3.92;74.75
49541;BME280;35432;43.566;1.398;2023-01-25T10:01:13;101489.00;;;3.96;74.51
49541;BME280;35432;43.566;1.398;2023-01-25T10:04:03;101487.44;;;3.99;73.33
49541;BME280;35432;43.566;1.398;2023-01-25T10:06:36;101486.88;;;4.07;74.44
49541;BME280;35432;43.566;1.398;2023-01-25T10:09:31;101480.13;;;4.12;73.54
49541;BME280;35432;43.566;1.398;2023-01-25T10:12:08;101482.03;;;4.16;74.01
49541;BME280;35432;43.566;1.398;2023-01-25T10:14:36;101478.72;;;4.20;74.66
49541;BME280;35432;43.566;1.398;2023-01-25T10:17:05;101472.00;;;4.25;74.17
49541;BME280;35432;43.566;1.398;2023-01-25T10:22:22;101460.91;;;4.31;74.04
49541;BME280;35432;43.566;1.398;2023-01-25T10:28:08;101449.84;;;4.37;73.22
49541;BME280;35432;43.566;1.398;2023-01-25T10:31:00;101455.13;;;4.38;73.06
49541;BME280;35432;43.566;1.398;2023-01-25T10:33:27;101453.66;;;4.45;74.41
49541;BME280;35432;43.566;1.398;2023-01-25T10:35:54;101449.44;;;4.49;74.13
49541;BME280;35432;43.566;1.398;2023-01-25T10:38:35;101449.41;;;4.47;73.23
49541;BME280;35432;43.566;1.398;2023-01-25T10:41:06;101453.78;;;4.48;74.13
49541;BME280;35432;43.566;1.398;2023-01-25T10:43:34;101449.34;;;4.45;74.05
49541;BME280;35432;43.566;1.398;2023-01-25T10:46:01;101446.53;;;4.41;73.92
49541;BME280;35432;43.566;1.398;2023-01-25T10:48:29;101443.56;;;4.31;73.85
49541;BME280;35432;43.566;1.398;2023-01-25T10:50:57;101444.38;;;4.30;74.00
49541;BME280;35432;43.566;1.398;2023-01-25T10:53:34;101437.31;;;4.28;73.53
49541;BME280;35432;43.566;1.398;2023-01-25T10:58:40;101435.75;;;4.31;74.03
49541;BME280;35432;43.566;1.398;2023-01-25T11:01:29;101427.69;;;4.25;72.57
49541;BME280;35432;43.566;1.398;2023-01-25T11:03:55;101424.16;;;4.25;73.92
49541;BME280;35432;43.566;1.398;2023-01-25T11:06:39;101416.16;;;4.20;72.35
49541;BME280;35432;43.566;1.398;2023-01-25T11:11:55;101409.31;;;4.22;73.36
49541;BME280;35432;43.566;1.398;2023-01-25T11:14:23;101406.03;;;4.28;74.28
49541;BME280;35432;43.566;1.398;2023-01-25T11:16:54;101397.66;;;4.35;74.31
49541;BME280;35432;43.566;1.398;2023-01-25T11:19:38;101391.84;;;4.42;72.38
49541;BME280;35432;43.566;1.398;2023-01-25T11:22:21;101393.84;;;4.50;71.93
49541;BME280;35432;43.566;1.398;2023-01-25T11:24:48;101392.56;;;4.61;73.97
49541;BME280;35432;43.566;1.398;2023-01-25T11:27:25;101383.91;;;4.62;72.89
49541;BME280;35432;43.566;1.398;2023-01-25T11:30:13;101383.91;;;4.62;71.93
49541;BME280;35432;43.566;1.398;2023-01-25T11:32:40;101391.88;;;4.67;74.04
49541;BME280;35432;43.566;1.398;2023-01-25T11:35:18;101383.00;;;4.62;72.46
49541;BME280;35432;43.566;1.398;2023-01-25T11:37:51;101381.97;;;4.58;73.38
49541;BME280;35432;43.566;1.398;2023-01-25T11:45:41;101374.75;;;4.51;73.75
49541;BME280;35432;43.566;1.398;2023-01-25T11:51:03;101370.19;;;4.45;72.64
49541;BME280;35432;43.566;1.398;2023-01-25T11:56:59;101358.03;;;4.45;72.34
49541;BME280;35432;43.566;1.398;2023-01-25T12:00:01;101354.53;;;4.45;72.26
49541;BME280;35432;43.566;1.398;2023-01-25T12:05:20;101348.44;;;4.44;72.70
49541;BME280;35432;43.566;1.398;2023-01-25T12:08:11;101337.09;;;4.44;72.96
49541;BME280;35432;43.566;1.398;2023-01-25T12:11:00;101334.47;;;4.42;72.66
49541;BME280;35432;43.566;1.398;2023-01-25T12:29:28;101304.53;;;4.33;72.41
49541;BME280;35432;43.566;1.398;2023-01-25T12:32:39;101298.97;;;4.23;71.93
49541;BME280;35432;43.566;1.398;2023-01-25T12:35:34;101302.22;;;4.18;71.31
49541;BME280;35432;43.566;1.398;2023-01-25T12:38:03;101298.81;;;4.20;73.29
49541;BME280;35432;43.566;1.398;2023-01-25T12:40:49;101297.94;;;4.20;72.56
49541;BME280;35432;43.566;1.398;2023-01-25T12:43:32;101292.78;;;4.21;72.45
49541;BME280;35432;43.566;1.398;2023-01-25T12:45:58;101290.34;;;4.26;73.26
49541;BME280;35432;43.566;1.398;2023-01-25T12:48:32;101278.13;;;4.23;72.87
49541;BME280;35432;43.566;1.398;2023-01-25T12:51:00;101279.06;;;4.25;73.52
49541;BME280;35432;43.566;1.398;2023-01-25T12:53:32;101275.50;;;4.23;73.12
49541;BME280;35432;43.566;1.398;2023-01-25T12:56:00;101271.22;;;4.25;73.44
49541;BME280;35432;43.566;1.398;2023-01-25T12:58:46;101262.59;;;4.26;72.50
49541;BME280;35432;43.566;1.398;2023-01-25T13:09:22;101247.22;;;4.34;71.70
49541;BME280;35432;43.566;1.398;2023-01-25T13:11:50;101242.88;;;4.35;73.12
49541;BME280;35432;43.566;1.398;2023-01-25T13:17:09;101232.34;;;4.31;71.84
49541;BME280;35432;43.566;1.398;2023-01-25T13:22:03;101231.63;;;4.36;72.87
49541;BME280;35432;43.566;1.398;2023-01-25T13:34:56;101211.81;;;4.41;72.55
49541;BME280;35432;43.566;1.398;2023-01-25T13:37:29;101204.81;;;4.40;72.56
49541;BME280;35432;43.566;1.398;2023-01-25T13:45:39;101210.16;;;4.43;72.67
49541;BME280;35432;43.566;1.398;2023-01-25T13:48:13;101204.81;;;4.40;70.63
49541;BME280;35432;43.566;1.398;2023-01-25T13:50:59;101203.97;;;4.41;71.27
49541;BME280;35432;43.566;1.398;2023-01-25T13:53:27;101200.72;;;4.47;72.76
49541;BME280;35432;43.566;1.398;2023-01-25T13:56:00;101207.78;;;4.49;72.02
49541;BME280;35432;43.566;1.398;2023-01-25T13:58:31;101207.59;;;4.44;72.14
49541;BME280;35432;43.566;1.398;2023-01-25T14:01:03;101213.59;;;4.42;71.98
49541;BME280;35432;43.566;1.398;2023-01-25T14:03:42;101214.28;;;4.36;71.44
49541;BME280;35432;43.566;1.398;2023-01-25T14:06:15;101207.22;;;4.34;72.32
49541;BME280;35432;43.566;1.398;2023-01-25T14:08:42;101206.38;;;4.35;72.72
49541;BME280;35432;43.566;1.398;2023-01-25T14:11:09;101201.16;;;4.35;72.51
49541;BME280;35432;43.566;1.398;2023-01-25T14:13:35;101199.38;;;4.34;72.59
49541;BME280;35432;43.566;1.398;2023-01-25T14:16:01;101192.56;;;4.37;72.90
49541;BME280;35432;43.566;1.398;2023-01-25T14:18:33;101197.81;;;4.39;72.64
49541;BME280;35432;43.566;1.398;2023-01-25T14:21:17;101195.28;;;4.40;71.98
49541;BME280;35432;43.566;1.398;2023-01-25T14:23:44;101194.59;;;4.46;72.95
49541;BME280;35432;43.566;1.398;2023-01-25T14:26:17;101194.75;;;4.49;71.79
49541;BME280;35432;43.566;1.398;2023-01-25T14:28:48;101191.28;;;4.50;72.35